createdAt,value
2019-01-23T00:01:32.081Z,74.58
2019-01-23T00:04:02.921Z,74.92
2019-01-23T00:06:35.064Z,75.59
2019-01-23T00:09:08.034Z,76.29
2019-01-23T00:11:38.419Z,77.40
2019-01-23T00:14:10.237Z,77.15
2019-01-23T00:16:40.677Z,77.01
2019-01-23T00:19:11.107Z,77.38
2019-01-23T00:21:41.665Z,77.35
2019-01-23T00:24:14.021Z,77.86
2019-01-23T00:26:44.440Z,78.71
2019-01-23T00:29:14.914Z,78.60
2019-01-23T00:31:45.283Z,78.39
2019-01-23T00:34:17.078Z,77.84
2019-01-23T00:36:47.500Z,77.48
2019-01-23T00:39:18.054Z,77.82
2019-01-23T00:41:50.777Z,77.95
2019-01-23T00:44:27.192Z,78.30
2019-01-23T00:47:00.475Z,79.01
2019-01-23T00:49:30.801Z,79.32
2019-01-23T00:52:01.709Z,79.92
2019-01-23T00:54:35.222Z,79.98
2019-01-23T00:57:05.706Z,79.50
2019-01-23T00:59:36.066Z,78.86
2019-01-23T01:02:07.443Z,78.34
2019-01-23T01:04:38.197Z,78.27
2019-01-23T01:07:09.790Z,77.89
2019-01-23T01:15:13.508Z,77.42
2019-01-23T01:17:44.215Z,78.03
2019-01-23T01:20:14.835Z,77.95
2019-01-23T01:22:50.173Z,77.47
2019-01-23T01:25:20.633Z,78.34
2019-01-23T01:27:51.191Z,77.02
2019-01-23T01:30:23.554Z,77.00
2019-01-23T01:32:54.274Z,76.91
2019-01-23T01:35:25.079Z,76.48
2019-01-23T01:41:36.040Z,75.35
2019-01-23T01:44:06.935Z,76.27
2019-01-23T01:46:37.411Z,75.80
2019-01-23T01:49:08.016Z,75.70
2019-01-23T01:51:38.356Z,76.43
2019-01-23T01:54:09.400Z,76.66
2019-01-23T01:56:39.956Z,76.13
2019-01-23T01:59:10.612Z,76.59
2019-01-23T02:01:41.054Z,76.41
2019-01-23T02:04:16.545Z,76.90
2019-01-23T02:06:46.906Z,77.19
2019-01-23T02:09:17.586Z,77.41
2019-01-23T02:15:00.679Z,76.65
2019-01-23T02:17:29.995Z,76.79
2019-01-23T02:20:03.791Z,77.23
2019-01-23T02:22:42.364Z,77.37
2019-01-23T02:25:20.519Z,77.46
2019-01-23T02:27:56.284Z,78.42
2019-01-23T02:30:27.732Z,78.58
2019-01-23T02:32:58.398Z,78.67
2019-01-23T02:35:28.952Z,78.60
2019-01-23T02:37:59.687Z,79.09
2019-01-23T02:40:30.225Z,79.74
2019-01-23T02:43:00.719Z,80.12
2019-01-23T02:45:33.914Z,80.62
2019-01-23T02:48:05.895Z,80.93
2019-01-23T02:50:36.329Z,81.17
2019-01-23T02:53:07.044Z,80.70
2019-01-23T02:55:37.429Z,81.26
2019-01-23T02:58:10.268Z,81.60
2019-01-23T03:00:40.657Z,81.98
2019-01-23T03:03:11.103Z,82.46
2019-01-23T03:05:41.466Z,83.27
2019-01-23T03:08:12.140Z,83.87
2019-01-23T03:10:42.670Z,83.38
2019-01-23T03:13:14.831Z,83.82
2019-01-23T03:15:45.246Z,84.07
2019-01-23T03:18:17.019Z,83.61
2019-01-23T03:24:38.921Z,84.16
2019-01-23T03:27:11.652Z,84.06
2019-01-23T03:29:42.158Z,83.82
2019-01-23T03:32:12.775Z,84.66
2019-01-23T03:34:58.614Z,84.67
2019-01-23T03:37:20.325Z,84.31
2019-01-23T03:39:51.017Z,84.15
2019-01-23T03:42:21.417Z,84.16
2019-01-23T03:44:53.521Z,84.24
2019-01-23T03:47:24.203Z,84.52
2019-01-23T03:49:54.531Z,84.68
2019-01-23T03:52:24.931Z,85.05
2019-01-23T03:54:57.997Z,85.35
2019-01-23T03:57:28.472Z,85.00
2019-01-23T04:00:00.829Z,85.11
2019-01-23T04:02:31.721Z,85.11
2019-01-23T04:05:02.042Z,85.11
2019-01-23T04:07:33.737Z,85.00
2019-01-23T04:10:04.838Z,84.90
2019-01-23T04:12:35.305Z,85.07
2019-01-23T04:15:06.782Z,85.47
2019-01-23T04:17:37.137Z,85.93
2019-01-23T04:20:10.998Z,85.75
2019-01-23T04:22:41.893Z,85.69
2019-01-23T04:25:13.345Z,86.05
2019-01-23T04:27:45.794Z,86.01
2019-01-23T04:30:19.117Z,86.10
2019-01-23T04:32:50.302Z,86.16
2019-01-23T04:35:20.754Z,85.87
2019-01-23T04:37:51.391Z,86.22
2019-01-23T04:40:24.623Z,86.31
2019-01-23T04:42:54.983Z,86.39
2019-01-23T04:45:26.959Z,86.53
2019-01-23T04:47:57.302Z,86.54
2019-01-23T04:50:28.237Z,86.64
2019-01-23T04:53:03.614Z,86.90
2019-01-23T04:55:34.725Z,86.90
2019-01-23T04:58:05.342Z,86.83
2019-01-23T05:00:39.852Z,86.60
2019-01-23T05:03:10.362Z,86.78
2019-01-23T05:05:42.383Z,86.86
2019-01-23T05:08:12.903Z,86.81
2019-01-23T05:10:44.856Z,87.28
2019-01-23T05:13:15.871Z,87.62
2019-01-23T05:15:46.314Z,87.51
2019-01-23T05:18:16.965Z,87.35
2019-01-23T05:20:54.731Z,87.61
2019-01-23T05:23:25.256Z,87.49
2019-01-23T05:25:55.965Z,87.31
2019-01-23T05:28:27.412Z,87.71
2019-01-23T05:31:01.711Z,87.93
2019-01-23T05:33:32.705Z,87.62
2019-01-23T05:36:05.772Z,87.78
2019-01-23T05:38:36.407Z,87.98
2019-01-23T05:41:07.522Z,87.74
2019-01-23T05:43:37.942Z,87.81
2019-01-23T05:46:08.419Z,87.49
2019-01-23T05:48:38.995Z,87.64
2019-01-23T05:51:10.075Z,87.91
2019-01-23T05:53:40.573Z,88.22
2019-01-23T05:56:11.271Z,88.33
2019-01-23T05:58:43.671Z,88.74
2019-01-23T06:01:19.302Z,88.48
2019-01-23T06:03:50.943Z,88.13
2019-01-23T06:06:21.388Z,88.37
2019-01-23T06:08:53.584Z,88.42
2019-01-23T06:11:24.006Z,88.10
2019-01-23T06:13:54.796Z,88.00
2019-01-23T06:16:25.202Z,88.27
2019-01-23T06:18:55.581Z,88.66
2019-01-23T06:21:26.066Z,88.56
2019-01-23T06:23:57.086Z,88.75
2019-01-23T06:26:28.109Z,88.98
2019-01-23T06:28:58.640Z,88.73
2019-01-23T06:31:30.582Z,88.28
2019-01-23T06:34:01.292Z,88.47
2019-01-23T06:36:33.907Z,88.77
2019-01-23T06:39:06.081Z,88.95
2019-01-23T06:41:38.226Z,89.06
2019-01-23T06:44:09.273Z,88.91
2019-01-23T06:46:41.388Z,88.97
2019-01-23T06:49:12.030Z,88.80
2019-01-23T06:51:42.760Z,88.76
2019-01-23T06:54:13.062Z,88.94
2019-01-23T06:56:44.820Z,89.25
2019-01-23T06:59:16.505Z,88.44
2019-01-23T07:01:53.319Z,88.24
2019-01-23T07:04:23.679Z,88.57
2019-01-23T07:06:57.190Z,88.87
2019-01-23T07:09:27.784Z,88.97
2019-01-23T07:11:58.299Z,89.03
2019-01-23T07:14:28.686Z,89.17
2019-01-23T07:17:01.103Z,88.65
2019-01-23T07:19:31.399Z,88.80
2019-01-23T07:22:08.180Z,88.92
2019-01-23T07:24:38.565Z,89.12
2019-01-23T07:27:09.194Z,88.92
2019-01-23T07:29:44.064Z,88.76
2019-01-23T07:32:15.669Z,88.63
2019-01-23T07:34:47.225Z,88.88
2019-01-23T07:37:34.277Z,88.51
2019-01-23T07:40:02.055Z,88.51
2019-01-23T07:42:32.399Z,87.60
2019-01-23T07:45:03.071Z,87.67
2019-01-23T07:47:33.515Z,87.58
2019-01-23T07:50:06.541Z,87.35
2019-01-23T07:52:40.081Z,87.93
2019-01-23T07:55:13.007Z,87.80
2019-01-23T07:57:43.733Z,87.37
2019-01-23T08:00:17.760Z,87.50
2019-01-23T08:02:48.446Z,87.59
2019-01-23T08:05:22.099Z,87.80
2019-01-23T08:07:53.898Z,87.62
2019-01-23T08:10:24.529Z,87.43
2019-01-23T08:12:56.105Z,86.74
2019-01-23T08:15:30.250Z,86.48
2019-01-23T08:18:01.796Z,86.79
2019-01-23T08:20:32.199Z,87.18
2019-01-23T08:23:02.483Z,87.19
2019-01-23T08:25:35.838Z,87.39
2019-01-23T08:28:10.479Z,87.64
2019-01-23T08:30:43.627Z,87.95
2019-01-23T08:33:18.448Z,87.56
2019-01-23T08:35:50.988Z,87.31
2019-01-23T08:38:21.374Z,87.16
2019-01-23T08:40:51.838Z,86.67
2019-01-23T08:43:23.640Z,86.80
2019-01-23T08:45:56.807Z,86.96
2019-01-23T08:48:27.187Z,87.25
2019-01-23T08:51:00.061Z,87.46
2019-01-23T08:53:30.777Z,87.47
2019-01-23T08:56:01.211Z,87.62
2019-01-23T08:58:34.607Z,87.23
2019-01-23T09:01:08.748Z,87.00
2019-01-23T09:03:39.416Z,86.73
2019-01-23T09:06:17.177Z,86.28
2019-01-23T09:08:51.631Z,86.19
2019-01-23T09:11:22.911Z,86.04
2019-01-23T09:13:53.637Z,85.45
2019-01-23T09:16:23.928Z,85.06
2019-01-23T09:18:54.751Z,85.00
2019-01-23T09:21:27.073Z,84.32
2019-01-23T09:23:58.590Z,84.20
2019-01-23T09:26:31.613Z,84.02
2019-01-23T09:29:06.394Z,83.12
2019-01-23T09:32:20.970Z,82.65
2019-01-23T09:35:13.144Z,81.98
2019-01-23T09:38:19.738Z,82.55
2019-01-23T09:41:14.270Z,81.00
2019-01-23T09:44:23.047Z,79.59
2019-01-23T09:47:43.446Z,79.23
2019-01-23T09:51:12.044Z,78.35
2019-01-23T09:53:51.435Z,77.97
2019-01-23T09:56:24.922Z,77.13
2019-01-23T09:58:55.641Z,77.05
2019-01-23T10:01:28.981Z,77.54
2019-01-23T10:04:00.332Z,77.44
2019-01-23T10:06:40.030Z,77.09
2019-01-23T10:09:13.159Z,75.10
2019-01-23T10:11:43.803Z,74.23
2019-01-23T10:14:16.528Z,74.88
2019-01-23T10:16:48.960Z,74.02
2019-01-23T10:19:19.372Z,71.03
2019-01-23T10:21:53.816Z,71.09
2019-01-23T10:24:27.188Z,71.82
2019-01-23T10:27:00.097Z,71.86
2019-01-23T10:29:30.459Z,72.17
2019-01-23T10:32:04.387Z,71.88
2019-01-23T10:34:35.988Z,71.21
2019-01-23T10:37:19.385Z,70.88
2019-01-23T10:39:48.494Z,71.23
2019-01-23T10:42:19.109Z,71.67
2019-01-23T10:44:51.523Z,71.13
2019-01-23T10:47:24.282Z,70.52
2019-01-23T10:49:54.580Z,69.67
2019-01-23T10:52:24.930Z,69.11
2019-01-23T10:54:58.104Z,69.49
2019-01-23T10:57:34.322Z,70.23
2019-01-23T11:00:09.893Z,70.82
2019-01-23T11:02:41.552Z,70.48
2019-01-23T11:05:13.704Z,70.72
2019-01-23T11:07:56.810Z,69.57
2019-01-23T11:10:30.761Z,70.13
2019-01-23T11:13:01.191Z,69.11
2019-01-23T11:15:31.620Z,69.24
2019-01-23T11:18:02.278Z,67.41
2019-01-23T11:20:36.344Z,66.55
2019-01-23T11:23:12.396Z,65.91
2019-01-23T11:25:56.144Z,64.89
2019-01-23T11:28:29.456Z,63.19
2019-01-23T11:31:11.556Z,63.51
2019-01-23T11:33:46.842Z,63.41
2019-01-23T11:36:17.014Z,62.09
2019-01-23T11:38:48.776Z,62.38
2019-01-23T11:41:27.310Z,62.69
2019-01-23T11:44:01.785Z,62.81
2019-01-23T11:46:34.596Z,61.72
2019-01-23T11:49:14.938Z,62.16
2019-01-23T11:51:41.108Z,62.42
2019-01-23T11:54:14.250Z,62.47
2019-01-23T11:56:45.043Z,61.88
2019-01-23T11:59:15.355Z,62.16
2019-01-23T12:01:52.840Z,60.91
2019-01-23T12:04:34.247Z,61.57
2019-01-23T12:07:04.971Z,61.63
2019-01-23T12:09:38.339Z,64.33
2019-01-23T12:12:10.939Z,61.74
2019-01-23T12:14:55.818Z,60.02
2019-01-23T12:17:26.774Z,61.48
2019-01-23T12:19:57.182Z,59.64
2019-01-23T12:22:28.736Z,60.15
2019-01-23T12:24:59.170Z,60.59
2019-01-23T12:27:57.630Z,60.83
2019-01-23T12:30:31.715Z,60.62
2019-01-23T12:33:15.529Z,60.77
2019-01-23T12:35:45.862Z,60.82
2019-01-23T12:38:17.846Z,62.06
2019-01-23T12:40:51.301Z,61.77
2019-01-23T12:43:21.961Z,62.20
2019-01-23T12:45:55.601Z,62.27
2019-01-23T12:48:29.431Z,63.17
2019-01-23T12:50:59.857Z,63.91
2019-01-23T12:53:30.244Z,63.63
2019-01-23T12:56:05.942Z,64.14
2019-01-23T12:58:38.981Z,63.23
2019-01-23T13:01:10.660Z,63.94
2019-01-23T13:03:42.524Z,64.07
2019-01-23T13:06:13.837Z,63.82
2019-01-23T13:08:46.658Z,63.64
2019-01-23T13:11:20.863Z,64.10
2019-01-23T13:13:54.642Z,63.97
2019-01-23T13:16:47.800Z,64.02
2019-01-23T13:19:21.531Z,64.46
2019-01-23T13:22:03.935Z,64.21
2019-01-23T13:24:37.368Z,64.10
2019-01-23T13:27:10.219Z,63.69
2019-01-23T13:29:42.849Z,63.89
2019-01-23T13:32:13.050Z,64.44
2019-01-23T13:34:43.600Z,64.12
2019-01-23T13:37:15.978Z,64.35
2019-01-23T13:39:46.324Z,64.26
2019-01-23T13:42:16.661Z,63.90
2019-01-23T13:44:49.864Z,64.28
2019-01-23T13:47:20.132Z,64.51
2019-01-23T13:49:59.466Z,64.41
2019-01-23T13:52:29.779Z,63.85
2019-01-23T13:55:00.611Z,63.86
2019-01-23T13:57:34.282Z,64.13
2019-01-23T14:00:07.117Z,64.30
2019-01-23T14:02:41.873Z,63.59
2019-01-23T14:05:12.482Z,63.95
2019-01-23T14:07:43.334Z,65.21
2019-01-23T14:10:15.416Z,65.51
2019-01-23T14:13:07.310Z,65.18
2019-01-23T14:15:42.607Z,65.25
2019-01-23T14:18:15.841Z,65.62
2019-01-23T14:20:46.270Z,65.81
2019-01-23T14:23:16.888Z,66.13
2019-01-23T14:25:48.445Z,66.08
2019-01-23T14:28:21.319Z,66.68
2019-01-23T14:30:54.649Z,65.58
2019-01-23T14:33:25.100Z,66.56
2019-01-23T14:38:28.590Z,66.73
2019-01-23T14:41:12.114Z,67.58
2019-01-23T14:43:47.452Z,67.82
2019-01-23T14:46:43.841Z,67.97
2019-01-23T14:49:29.903Z,68.10
2019-01-23T14:52:15.171Z,68.78
2019-01-23T14:54:50.919Z,68.73
2019-01-23T14:57:21.139Z,68.63
2019-01-23T15:00:12.418Z,68.00
2019-01-23T15:02:42.946Z,68.43
2019-01-23T15:05:13.473Z,68.92
2019-01-23T15:11:29.969Z,69.19
2019-01-23T15:14:06.545Z,68.50
2019-01-23T15:17:00.946Z,69.07
2019-01-23T15:19:50.477Z,69.08
2019-01-23T15:22:39.799Z,69.39
2019-01-23T15:25:49.423Z,69.15
2019-01-23T15:32:09.760Z,70.12
2019-01-23T15:34:56.447Z,70.05
2019-01-23T15:37:56.744Z,70.09
2019-01-23T15:49:03.519Z,70.86
2019-01-23T15:54:28.927Z,71.59
2019-01-23T15:57:37.108Z,71.75
2019-01-23T16:00:32.558Z,71.30
2019-01-23T16:03:25.249Z,72.07
2019-01-23T16:06:14.416Z,72.19
2019-01-23T16:08:58.423Z,71.29
2019-01-23T16:11:22.828Z,71.74
2019-01-23T16:14:06.037Z,70.35
2019-01-23T16:16:47.916Z,71.61
2019-01-23T16:19:26.045Z,72.25
2019-01-23T16:22:06.733Z,72.35
2019-01-23T16:24:37.689Z,72.92
2019-01-23T16:27:28.029Z,73.38
2019-01-23T16:30:21.318Z,73.71
2019-01-23T16:33:12.886Z,73.74
2019-01-23T16:36:02.242Z,73.42
2019-01-23T16:38:54.793Z,71.99
2019-01-23T16:41:46.998Z,71.80
2019-01-23T16:44:21.266Z,72.53
2019-01-23T16:47:10.656Z,72.40
2019-01-23T16:49:45.054Z,71.91
2019-01-23T16:55:36.214Z,71.75
2019-01-23T17:01:16.603Z,72.48
2019-01-23T17:04:06.407Z,71.38
2019-01-23T17:06:39.044Z,71.81
2019-01-23T17:09:28.796Z,71.75
2019-01-23T17:12:22.539Z,71.75
2019-01-23T17:14:53.550Z,71.68
2019-01-23T17:17:53.812Z,71.97
2019-01-23T17:20:51.235Z,71.98
2019-01-23T17:23:21.777Z,72.03
2019-01-23T17:26:11.092Z,72.07
2019-01-23T17:29:01.677Z,72.20
2019-01-23T17:31:53.705Z,71.68
2019-01-23T17:34:25.423Z,71.60
2019-01-23T17:37:24.883Z,71.78
2019-01-23T17:39:58.275Z,71.85
2019-01-23T17:42:32.435Z,72.63
2019-01-23T17:45:22.863Z,72.82
2019-01-23T17:47:57.678Z,73.10
2019-01-23T17:50:30.594Z,73.37
2019-01-23T17:53:41.582Z,73.63
2019-01-23T17:56:34.730Z,73.73
2019-01-23T17:59:43.178Z,73.94
2019-01-23T18:02:13.857Z,74.33
2019-01-23T18:05:07.100Z,74.81
2019-01-23T18:10:35.497Z,74.97
2019-01-23T18:16:21.160Z,75.19
2019-01-23T18:22:06.316Z,75.93
2019-01-23T18:25:06.822Z,75.67
2019-01-23T18:28:10.902Z,76.02
2019-01-23T18:34:38.396Z,75.33
2019-01-23T18:38:00.687Z,75.40
2019-01-23T18:41:14.823Z,75.65
2019-01-23T18:45:05.137Z,75.92
2019-01-23T18:47:27.108Z,76.04
2019-01-23T18:53:11.824Z,75.37
2019-01-23T18:55:42.262Z,75.55
2019-01-23T18:58:33.858Z,75.55
2019-01-23T19:01:51.886Z,75.55
2019-01-23T19:04:49.629Z,76.05
2019-01-23T19:08:07.386Z,75.52
2019-01-23T19:10:57.486Z,75.93
2019-01-23T19:13:58.269Z,75.58
2019-01-23T19:16:29.129Z,75.70
2019-01-23T19:19:22.806Z,75.50
2019-01-23T19:21:57.460Z,75.98
2019-01-23T19:24:49.073Z,75.58
2019-01-23T19:27:27.085Z,75.80
2019-01-23T19:30:31.839Z,76.07
2019-01-23T19:33:42.239Z,75.58
2019-01-23T19:36:33.975Z,75.18
2019-01-23T19:39:13.135Z,75.20
2019-01-23T19:42:27.037Z,75.06
2019-01-23T19:47:58.985Z,75.00
2019-01-23T19:50:51.775Z,74.94
2019-01-23T19:53:47.982Z,75.04
2019-01-23T19:56:45.084Z,75.16
2019-01-23T20:02:26.838Z,75.12
2019-01-23T20:05:23.280Z,75.30
2019-01-23T20:08:13.126Z,74.82
2019-01-23T20:10:46.570Z,74.84
2019-01-23T20:13:54.896Z,74.98
2019-01-23T20:16:37.147Z,74.42
2019-01-23T20:19:15.254Z,73.93
2019-01-23T20:21:45.854Z,74.04
2019-01-23T20:24:23.220Z,74.21
2019-01-23T20:29:48.237Z,75.35
2019-01-23T20:32:20.610Z,75.43
2019-01-23T20:34:51.147Z,75.46
2019-01-23T20:37:43.637Z,74.81
2019-01-23T20:40:17.096Z,74.81
2019-01-23T20:42:50.240Z,74.17
2019-01-23T20:45:20.201Z,74.99
2019-01-23T20:47:52.103Z,75.25
2019-01-23T20:53:37.643Z,75.78
2019-01-23T20:56:08.682Z,76.15
2019-01-23T20:58:38.899Z,77.07
2019-01-23T21:01:09.452Z,78.15
2019-01-23T21:03:41.256Z,78.62
2019-01-23T21:06:17.635Z,78.62
2019-01-23T21:08:51.017Z,79.54
2019-01-23T21:11:26.151Z,80.69
2019-01-23T21:13:56.449Z,81.27
2019-01-23T21:16:46.121Z,80.32
2019-01-23T21:22:28.758Z,80.05
2019-01-23T21:24:59.596Z,80.86
2019-01-23T21:27:29.859Z,81.78
2019-01-23T21:30:01.759Z,82.33
2019-01-23T21:32:51.176Z,82.10
2019-01-23T21:35:59.144Z,82.65
2019-01-23T21:38:34.706Z,82.86
2019-01-23T21:41:05.156Z,82.36
2019-01-23T21:43:57.224Z,82.69
2019-01-23T21:46:47.226Z,81.32
2019-01-23T21:49:36.996Z,81.76
2019-01-23T21:52:13.099Z,83.17
2019-01-23T21:54:46.641Z,82.40
2019-01-23T21:57:54.841Z,82.43
2019-01-23T22:00:27.883Z,82.62
2019-01-23T22:02:59.206Z,82.83
2019-01-23T22:05:45.028Z,82.72
2019-01-23T22:08:06.432Z,82.81
2019-01-23T22:10:39.287Z,82.21
2019-01-23T22:13:15.775Z,82.67
2019-01-23T22:16:26.255Z,82.78
2019-01-23T22:18:56.560Z,83.06
2019-01-23T22:24:49.568Z,83.44
2019-01-23T22:27:15.610Z,83.49
2019-01-23T22:30:24.028Z,83.60
2019-01-23T22:36:06.788Z,83.16
2019-01-23T22:39:17.890Z,83.91
2019-01-23T22:41:48.149Z,84.17
2019-01-23T22:44:37.469Z,84.61
2019-01-23T22:47:26.694Z,85.28
2019-01-23T22:50:00.255Z,85.24
2019-01-23T22:52:30.980Z,85.09
2019-01-23T22:55:01.809Z,83.95
2019-01-23T22:57:32.052Z,84.00
2019-01-23T23:00:45.875Z,84.53
2019-01-23T23:03:18.822Z,84.88
2019-01-23T23:06:28.686Z,85.03
2019-01-23T23:09:18.765Z,85.08
2019-01-23T23:12:27.072Z,85.68
2019-01-23T23:14:58.602Z,85.75
2019-01-23T23:17:28.880Z,85.01
2019-01-23T23:20:18.151Z,85.31
2019-01-23T23:23:07.461Z,85.86
2019-01-23T23:25:57.202Z,85.08
2019-01-23T23:28:47.820Z,84.68
2019-01-23T23:31:29.274Z,85.87
2019-01-23T23:34:01.939Z,86.30
2019-01-23T23:36:51.222Z,87.03
2019-01-23T23:39:41.946Z,87.76
2019-01-23T23:42:31.184Z,87.18
2019-01-23T23:45:10.186Z,87.12
2019-01-23T23:50:59.743Z,86.90
2019-01-23T23:54:01.275Z,87.28
2019-01-23T23:56:42.110Z,88.23
2019-01-23T23:59:12.347Z,88.57
